sensor_id;sensor_type;location;lat;lon;timestamp;temperature;humidity
76838;DHT22;65797;47.352;8.164;2023-07-22T00:01:25;18.20;1.00
76838;DHT22;65797;47.352;8.164;2023-07-22T00:03:51;18.20;1.00
76838;DHT22;65797;47.352;8.164;2023-07-22T00:06:17;18.20;1.00
76838;DHT22;65797;47.352;8.164;2023-07-22T00:08:43;18.20;1.00
76838;DHT22;65797;47.352;8.164;2023-07-22T00:11:09;18.10;1.00
76838;DHT22;65797;47.352;8.164;2023-07-22T00:13:34;18.10;1.00
76838;DHT22;65797;47.352;8.164;2023-07-22T00:16:01;18.00;1.00
76838;DHT22;65797;47.352;8.164;2023-07-22T00:18:29;18.10;1.00
76838;DHT22;65797;47.352;8.164;2023-07-22T00:20:56;18.10;1.00
76838;DHT22;65797;47.352;8.164;2023-07-22T00:23:22;18.10;1.00
76838;DHT22;65797;47.352;8.164;2023-07-22T00:25:48;18.10;1.00
76838;DHT22;65797;47.352;8.164;2023-07-22T00:28:15;18.10;1.00
76838;DHT22;65797;47.352;8.164;2023-07-22T00:30:41;18.00;1.00
76838;DHT22;65797;47.352;8.164;2023-07-22T00:33:07;18.00;1.00
76838;DHT22;65797;47.352;8.164;2023-07-22T00:35:33;18.00;1.00
76838;DHT22;65797;47.352;8.164;2023-07-22T00:38:00;17.90;1.00
76838;DHT22;65797;47.352;8.164;2023-07-22T00:40:26;17.90;1.00
76838;DHT22;65797;47.352;8.164;2023-07-22T00:42:52;17.90;1.00
76838;DHT22;65797;47.352;8.164;2023-07-22T00:45:18;17.90;1.00
76838;DHT22;65797;47.352;8.164;2023-07-22T00:47:44;17.90;1.00
76838;DHT22;65797;47.352;8.164;2023-07-22T00:50:10;17.90;1.00
76838;DHT22;65797;47.352;8.164;2023-07-22T00:52:37;17.80;1.00
76838;DHT22;65797;47.352;8.164;2023-07-22T00:55:04;17.80;1.00
76838;DHT22;65797;47.352;8.164;2023-07-22T00:57:30;17.80;1.00
76838;DHT22;65797;47.352;8.164;2023-07-22T00:59:56;17.80;1.00
76838;DHT22;65797;47.352;8.164;2023-07-22T01:02:22;17.80;1.00
76838;DHT22;65797;47.352;8.164;2023-07-22T01:04:49;17.80;1.00
76838;DHT22;65797;47.352;8.164;2023-07-22T01:07:17;17.70;1.00
76838;DHT22;65797;47.352;8.164;2023-07-22T01:09:44;17.70;1.00
76838;DHT22;65797;47.352;8.164;2023-07-22T01:12:11;17.70;1.00
76838;DHT22;65797;47.352;8.164;2023-07-22T01:14:39;17.70;1.00
76838;DHT22;65797;47.352;8.164;2023-07-22T01:17:06;17.70;1.00
76838;DHT22;65797;47.352;8.164;2023-07-22T01:19:32;17.70;1.00
76838;DHT22;65797;47.352;8.164;2023-07-22T01:22:03;17.60;1.00
76838;DHT22;65797;47.352;8.164;2023-07-22T01:24:31;17.50;1.00
76838;DHT22;65797;47.352;8.164;2023-07-22T01:26:57;17.50;1.00
76838;DHT22;65797;47.352;8.164;2023-07-22T01:29:23;17.50;1.00
76838;DHT22;65797;47.352;8.164;2023-07-22T01:31:51;17.50;1.00
76838;DHT22;65797;47.352;8.164;2023-07-22T01:34:17;17.50;1.00
76838;DHT22;65797;47.352;8.164;2023-07-22T01:36:45;17.50;1.00
76838;DHT22;65797;47.352;8.164;2023-07-22T01:39:11;17.50;1.00
76838;DHT22;65797;47.352;8.164;2023-07-22T01:41:37;17.50;1.00
76838;DHT22;65797;47.352;8.164;2023-07-22T01:44:03;17.50;1.00
76838;DHT22;65797;47.352;8.164;2023-07-22T01:46:28;17.50;1.00
76838;DHT22;65797;47.352;8.164;2023-07-22T01:48:55;17.40;1.00
76838;DHT22;65797;47.352;8.164;2023-07-22T01:51:21;17.30;1.00
76838;DHT22;65797;47.352;8.164;2023-07-22T01:53:47;17.30;1.00
76838;DHT22;65797;47.352;8.164;2023-07-22T01:56:13;17.40;1.00
76838;DHT22;65797;47.352;8.164;2023-07-22T01:58:39;17.40;1.00
76838;DHT22;65797;47.352;8.164;2023-07-22T02:01:04;17.40;1.00
76838;DHT22;65797;47.352;8.164;2023-07-22T02:03:30;17.40;1.00
76838;DHT22;65797;47.352;8.164;2023-07-22T02:06:04;17.20;1.00
76838;DHT22;65797;47.352;8.164;2023-07-22T02:08:30;17.20;1.00
76838;DHT22;65797;47.352;8.164;2023-07-22T02:11:01;17.10;1.00
76838;DHT22;65797;47.352;8.164;2023-07-22T02:13:27;17.10;1.00
76838;DHT22;65797;47.352;8.164;2023-07-22T02:15:53;17.00;1.00
76838;DHT22;65797;47.352;8.164;2023-07-22T02:18:19;17.00;1.00
76838;DHT22;65797;47.352;8.164;2023-07-22T02:20:45;16.90;1.00
76838;DHT22;65797;47.352;8.164;2023-07-22T02:23:11;16.80;1.00
76838;DHT22;65797;47.352;8.164;2023-07-22T02:25:36;16.80;1.00
76838;DHT22;65797;47.352;8.164;2023-07-22T02:28:02;16.80;1.00
76838;DHT22;65797;47.352;8.164;2023-07-22T02:30:28;16.80;1.00
76838;DHT22;65797;47.352;8.164;2023-07-22T02:32:54;16.80;1.00
76838;DHT22;65797;47.352;8.164;2023-07-22T02:35:20;16.70;1.00
76838;DHT22;65797;47.352;8.164;2023-07-22T02:37:45;16.70;1.00
76838;DHT22;65797;47.352;8.164;2023-07-22T02:40:11;16.60;1.00
76838;DHT22;65797;47.352;8.164;2023-07-22T02:42:38;16.60;1.00
76838;DHT22;65797;47.352;8.164;2023-07-22T02:45:04;16.60;1.00
76838;DHT22;65797;47.352;8.164;2023-07-22T02:47:31;16.50;1.00
76838;DHT22;65797;47.352;8.164;2023-07-22T02:49:57;16.50;1.00
76838;DHT22;65797;47.352;8.164;2023-07-22T02:52:23;16.40;1.00
76838;DHT22;65797;47.352;8.164;2023-07-22T02:55:24;16.40;1.00
76838;DHT22;65797;47.352;8.164;2023-07-22T02:57:50;16.30;1.00
76838;DHT22;65797;47.352;8.164;2023-07-22T03:00:18;16.30;1.00
76838;DHT22;65797;47.352;8.164;2023-07-22T03:02:51;16.30;1.00
76838;DHT22;65797;47.352;8.164;2023-07-22T03:05:26;16.30;6.60
76838;DHT22;65797;47.352;8.164;2023-07-22T03:07:53;16.30;1.00
76838;DHT22;65797;47.352;8.164;2023-07-22T03:10:19;16.30;1.00
76838;DHT22;65797;47.352;8.164;2023-07-22T03:12:45;16.20;1.00
76838;DHT22;65797;47.352;8.164;2023-07-22T03:15:11;16.20;25.50
76838;DHT22;65797;47.352;8.164;2023-07-22T03:17:39;16.10;18.90
76838;DHT22;65797;47.352;8.164;2023-07-22T03:20:07;16.10;67.40
76838;DHT22;65797;47.352;8.164;2023-07-22T03:22:40;16.10;99.90
76838;DHT22;65797;47.352;8.164;2023-07-22T03:25:08;16.10;11.20
76838;DHT22;65797;47.352;8.164;2023-07-22T03:27:36;16.10;1.00
76838;DHT22;65797;47.352;8.164;2023-07-22T03:30:03;16.10;1.00
76838;DHT22;65797;47.352;8.164;2023-07-22T03:32:29;16.10;1.00
76838;DHT22;65797;47.352;8.164;2023-07-22T03:34:54;16.00;7.30
76838;DHT22;65797;47.352;8.164;2023-07-22T03:37:20;16.00;99.90
76838;DHT22;65797;47.352;8.164;2023-07-22T03:39:46;15.90;1.00
76838;DHT22;65797;47.352;8.164;2023-07-22T03:42:12;15.80;7.70
76838;DHT22;65797;47.352;8.164;2023-07-22T03:44:37;15.80;98.90
76838;DHT22;65797;47.352;8.164;2023-07-22T03:47:04;15.80;99.90
76838;DHT22;65797;47.352;8.164;2023-07-22T03:49:29;15.80;84.90
76838;DHT22;65797;47.352;8.164;2023-07-22T03:51:55;15.80;72.10
76838;DHT22;65797;47.352;8.164;2023-07-22T03:54:21;15.80;74.30
76838;DHT22;65797;47.352;8.164;2023-07-22T03:56:46;15.70;99.90
76838;DHT22;65797;47.352;8.164;2023-07-22T03:59:12;15.70;99.90
76838;DHT22;65797;47.352;8.164;2023-07-22T04:01:38;15.70;99.90
76838;DHT22;65797;47.352;8.164;2023-07-22T04:04:04;15.70;99.90
76838;DHT22;65797;47.352;8.164;2023-07-22T04:06:29;15.70;82.00
76838;DHT22;65797;47.352;8.164;2023-07-22T04:08:55;15.60;99.90
76838;DHT22;65797;47.352;8.164;2023-07-22T04:11:21;15.60;99.90
76838;DHT22;65797;47.352;8.164;2023-07-22T04:13:47;15.60;99.90
76838;DHT22;65797;47.352;8.164;2023-07-22T04:16:14;15.60;99.90
76838;DHT22;65797;47.352;8.164;2023-07-22T04:18:40;15.50;99.90
76838;DHT22;65797;47.352;8.164;2023-07-22T04:21:05;15.50;99.90
76838;DHT22;65797;47.352;8.164;2023-07-22T04:23:31;15.40;99.90
76838;DHT22;65797;47.352;8.164;2023-07-22T04:26:01;15.40;99.90
76838;DHT22;65797;47.352;8.164;2023-07-22T04:28:27;15.40;99.90
76838;DHT22;65797;47.352;8.164;2023-07-22T04:30:57;15.40;99.90
76838;DHT22;65797;47.352;8.164;2023-07-22T04:33:24;15.40;99.90
76838;DHT22;65797;47.352;8.164;2023-07-22T04:35:52;15.30;99.90
76838;DHT22;65797;47.352;8.164;2023-07-22T04:38:18;15.30;99.90
76838;DHT22;65797;47.352;8.164;2023-07-22T04:40:44;15.30;99.90
76838;DHT22;65797;47.352;8.164;2023-07-22T04:43:10;15.30;99.90
76838;DHT22;65797;47.352;8.164;2023-07-22T04:45:36;15.40;99.90
76838;DHT22;65797;47.352;8.164;2023-07-22T04:48:02;15.40;99.90
76838;DHT22;65797;47.352;8.164;2023-07-22T04:50:28;15.40;99.90
76838;DHT22;65797;47.352;8.164;2023-07-22T04:52:55;15.50;99.90
76838;DHT22;65797;47.352;8.164;2023-07-22T04:55:21;15.60;1.00
76838;DHT22;65797;47.352;8.164;2023-07-22T04:57:48;15.70;99.90
76838;DHT22;65797;47.352;8.164;2023-07-22T05:00:14;15.80;99.90
76838;DHT22;65797;47.352;8.164;2023-07-22T05:02:45;15.90;99.90
76838;DHT22;65797;47.352;8.164;2023-07-22T05:05:15;16.00;99.90
76838;DHT22;65797;47.352;8.164;2023-07-22T05:07:41;16.20;99.90
76838;DHT22;65797;47.352;8.164;2023-07-22T05:10:08;16.30;99.90
76838;DHT22;65797;47.352;8.164;2023-07-22T05:12:40;16.40;99.90
76838;DHT22;65797;47.352;8.164;2023-07-22T05:15:07;16.60;99.90
76838;DHT22;65797;47.352;8.164;2023-07-22T05:17:33;16.80;39.70
76838;DHT22;65797;47.352;8.164;2023-07-22T05:19:58;16.90;21.10
76838;DHT22;65797;47.352;8.164;2023-07-22T05:22:24;17.10;1.00
76838;DHT22;65797;47.352;8.164;2023-07-22T05:24:50;17.30;1.00
76838;DHT22;65797;47.352;8.164;2023-07-22T05:27:17;17.40;1.00
76838;DHT22;65797;47.352;8.164;2023-07-22T05:29:43;17.60;1.00
76838;DHT22;65797;47.352;8.164;2023-07-22T05:32:11;17.80;1.00
76838;DHT22;65797;47.352;8.164;2023-07-22T05:34:36;17.90;1.00
76838;DHT22;65797;47.352;8.164;2023-07-22T05:37:02;18.10;99.90
76838;DHT22;65797;47.352;8.164;2023-07-22T05:39:28;18.20;1.00
76838;DHT22;65797;47.352;8.164;2023-07-22T05:41:54;18.50;99.90
76838;DHT22;65797;47.352;8.164;2023-07-22T05:44:19;18.70;99.90
76838;DHT22;65797;47.352;8.164;2023-07-22T05:46:45;18.80;99.90
76838;DHT22;65797;47.352;8.164;2023-07-22T05:49:11;19.00;99.90
76838;DHT22;65797;47.352;8.164;2023-07-22T05:51:37;19.10;99.90
76838;DHT22;65797;47.352;8.164;2023-07-22T05:54:03;19.20;99.90
76838;DHT22;65797;47.352;8.164;2023-07-22T05:56:29;19.40;99.90
76838;DHT22;65797;47.352;8.164;2023-07-22T05:58:54;19.60;99.90
76838;DHT22;65797;47.352;8.164;2023-07-22T06:01:20;19.70;99.90
76838;DHT22;65797;47.352;8.164;2023-07-22T06:03:47;19.90;99.90
76838;DHT22;65797;47.352;8.164;2023-07-22T06:06:13;20.10;99.90
76838;DHT22;65797;47.352;8.164;2023-07-22T06:08:39;20.00;99.90
76838;DHT22;65797;47.352;8.164;2023-07-22T06:11:04;20.10;99.90
76838;DHT22;65797;47.352;8.164;2023-07-22T06:13:30;20.10;99.90
76838;DHT22;65797;47.352;8.164;2023-07-22T06:15:56;20.10;99.90
76838;DHT22;65797;47.352;8.164;2023-07-22T06:18:22;20.40;99.90
76838;DHT22;65797;47.352;8.164;2023-07-22T06:20:49;20.90;99.90
76838;DHT22;65797;47.352;8.164;2023-07-22T06:23:15;20.90;99.90
76838;DHT22;65797;47.352;8.164;2023-07-22T06:25:40;21.00;99.90
76838;DHT22;65797;47.352;8.164;2023-07-22T06:28:06;21.20;99.90
76838;DHT22;65797;47.352;8.164;2023-07-22T06:30:32;21.60;99.90
76838;DHT22;65797;47.352;8.164;2023-07-22T06:32:58;21.50;99.90
76838;DHT22;65797;47.352;8.164;2023-07-22T06:35:24;21.70;99.90
76838;DHT22;65797;47.352;8.164;2023-07-22T06:37:49;22.00;99.90
76838;DHT22;65797;47.352;8.164;2023-07-22T06:40:15;22.00;99.90
76838;DHT22;65797;47.352;8.164;2023-07-22T06:42:41;22.10;99.90
76838;DHT22;65797;47.352;8.164;2023-07-22T06:45:07;22.30;99.90
76838;DHT22;65797;47.352;8.164;2023-07-22T06:47:33;22.60;99.90
76838;DHT22;65797;47.352;8.164;2023-07-22T06:49:59;22.60;99.90
76838;DHT22;65797;47.352;8.164;2023-07-22T06:52:24;22.80;99.90
76838;DHT22;65797;47.352;8.164;2023-07-22T06:54:50;22.80;99.90
76838;DHT22;65797;47.352;8.164;2023-07-22T06:57:16;23.10;99.90
76838;DHT22;65797;47.352;8.164;2023-07-22T06:59:41;23.10;99.70
76838;DHT22;65797;47.352;8.164;2023-07-22T07:02:07;23.30;99.80
76838;DHT22;65797;47.352;8.164;2023-07-22T07:04:34;23.30;98.00
76838;DHT22;65797;47.352;8.164;2023-07-22T07:06:59;23.30;95.60
76838;DHT22;65797;47.352;8.164;2023-07-22T07:09:25;23.00;98.20
76838;DHT22;65797;47.352;8.164;2023-07-22T07:11:51;23.10;95.70
76838;DHT22;65797;47.352;8.164;2023-07-22T07:14:18;23.00;94.80
76838;DHT22;65797;47.352;8.164;2023-07-22T07:16:44;23.00;97.80
76838;DHT22;65797;47.352;8.164;2023-07-22T07:19:10;23.30;94.40
76838;DHT22;65797;47.352;8.164;2023-07-22T07:21:36;23.40;92.40
76838;DHT22;65797;47.352;8.164;2023-07-22T07:24:02;23.60;92.30
76838;DHT22;65797;47.352;8.164;2023-07-22T07:26:28;24.00;90.40
76838;DHT22;65797;47.352;8.164;2023-07-22T07:28:53;24.40;86.20
76838;DHT22;65797;47.352;8.164;2023-07-22T07:31:19;24.30;79.60
76838;DHT22;65797;47.352;8.164;2023-07-22T07:33:45;24.60;79.80
76838;DHT22;65797;47.352;8.164;2023-07-22T07:36:11;24.90;81.00
76838;DHT22;65797;47.352;8.164;2023-07-22T07:38:37;25.00;77.00
76838;DHT22;65797;47.352;8.164;2023-07-22T07:41:04;25.00;77.80
76838;DHT22;65797;47.352;8.164;2023-07-22T07:43:34;25.30;77.90
76838;DHT22;65797;47.352;8.164;2023-07-22T07:48:52;25.60;81.40
76838;DHT22;65797;47.352;8.164;2023-07-22T07:51:20;25.70;73.70
76838;DHT22;65797;47.352;8.164;2023-07-22T07:53:47;25.30;60.40
76838;DHT22;65797;47.352;8.164;2023-07-22T07:56:13;24.90;59.00
76838;DHT22;65797;47.352;8.164;2023-07-22T07:58:39;23.90;51.40
76838;DHT22;65797;47.352;8.164;2023-07-22T08:01:06;23.70;53.10
76838;DHT22;65797;47.352;8.164;2023-07-22T08:03:33;23.50;48.70
76838;DHT22;65797;47.352;8.164;2023-07-22T08:05:59;23.10;47.20
76838;DHT22;65797;47.352;8.164;2023-07-22T08:08:24;22.90;47.70
76838;DHT22;65797;47.352;8.164;2023-07-22T08:11:03;22.90;49.40
76838;DHT22;65797;47.352;8.164;2023-07-22T08:13:30;22.80;46.30
76838;DHT22;65797;47.352;8.164;2023-07-22T08:16:01;22.60;48.80
76838;DHT22;65797;47.352;8.164;2023-07-22T08:18:29;22.70;52.30
76838;DHT22;65797;47.352;8.164;2023-07-22T08:20:56;22.60;50.40
76838;DHT22;65797;47.352;8.164;2023-07-22T08:23:22;22.80;49.00
76838;DHT22;65797;47.352;8.164;2023-07-22T08:25:48;23.60;54.30
76838;DHT22;65797;47.352;8.164;2023-07-22T08:28:14;23.70;45.60
76838;DHT22;65797;47.352;8.164;2023-07-22T08:30:40;23.50;43.50
76838;DHT22;65797;47.352;8.164;2023-07-22T08:33:10;23.60;41.40
76838;DHT22;65797;47.352;8.164;2023-07-22T08:35:37;23.50;37.00
76838;DHT22;65797;47.352;8.164;2023-07-22T08:38:03;23.40;35.30
76838;DHT22;65797;47.352;8.164;2023-07-22T08:40:39;23.00;30.60
76838;DHT22;65797;47.352;8.164;2023-07-22T08:43:08;23.70;32.80
76838;DHT22;65797;47.352;8.164;2023-07-22T08:45:36;23.30;30.10
76838;DHT22;65797;47.352;8.164;2023-07-22T08:48:07;23.90;33.80
76838;DHT22;65797;47.352;8.164;2023-07-22T08:53:05;24.00;38.10
76838;DHT22;65797;47.352;8.164;2023-07-22T08:55:31;24.20;28.40
76838;DHT22;65797;47.352;8.164;2023-07-22T08:57:58;24.20;27.50
76838;DHT22;65797;47.352;8.164;2023-07-22T09:00:24;24.60;26.90
76838;DHT22;65797;47.352;8.164;2023-07-22T09:02:50;24.70;26.70
76838;DHT22;65797;47.352;8.164;2023-07-22T09:05:16;24.80;27.20
76838;DHT22;65797;47.352;8.164;2023-07-22T09:07:43;24.90;27.30
76838;DHT22;65797;47.352;8.164;2023-07-22T09:10:09;24.90;27.10
76838;DHT22;65797;47.352;8.164;2023-07-22T09:12:35;25.60;32.20
76838;DHT22;65797;47.352;8.164;2023-07-22T09:15:12;25.80;29.50
76838;DHT22;65797;47.352;8.164;2023-07-22T09:17:41;26.30;30.00
76838;DHT22;65797;47.352;8.164;2023-07-22T09:20:08;26.20;27.10
76838;DHT22;65797;47.352;8.164;2023-07-22T09:22:34;26.40;28.70
76838;DHT22;65797;47.352;8.164;2023-07-22T09:25:18;26.80;31.40
76838;DHT22;65797;47.352;8.164;2023-07-22T09:27:46;26.60;22.80
76838;DHT22;65797;47.352;8.164;2023-07-22T09:30:32;25.80;14.30
76838;DHT22;65797;47.352;8.164;2023-07-22T09:33:00;25.40;14.90
76838;DHT22;65797;47.352;8.164;2023-07-22T09:37:56;25.20;10.40
76838;DHT22;65797;47.352;8.164;2023-07-22T09:40:26;26.00;14.60
76838;DHT22;65797;47.352;8.164;2023-07-22T09:42:54;26.10;17.50
76838;DHT22;65797;47.352;8.164;2023-07-22T09:45:22;25.70;15.60
76838;DHT22;65797;47.352;8.164;2023-07-22T09:47:50;25.00;10.10
76838;DHT22;65797;47.352;8.164;2023-07-22T09:50:21;24.70;7.30
76838;DHT22;65797;47.352;8.164;2023-07-22T09:55:20;25.30;12.30
76838;DHT22;65797;47.352;8.164;2023-07-22T09:58:05;25.50;11.20
76838;DHT22;65797;47.352;8.164;2023-07-22T10:00:33;26.10;15.90
76838;DHT22;65797;47.352;8.164;2023-07-22T10:03:01;26.10;15.20
76838;DHT22;65797;47.352;8.164;2023-07-22T10:05:28;26.20;15.00
76838;DHT22;65797;47.352;8.164;2023-07-22T10:07:57;26.20;15.30
76838;DHT22;65797;47.352;8.164;2023-07-22T10:10:30;26.60;15.20
76838;DHT22;65797;47.352;8.164;2023-07-22T10:12:56;26.40;16.00
76838;DHT22;65797;47.352;8.164;2023-07-22T10:15:25;26.40;16.80
76838;DHT22;65797;47.352;8.164;2023-07-22T10:17:51;26.30;16.00
76838;DHT22;65797;47.352;8.164;2023-07-22T10:20:19;26.80;17.20
76838;DHT22;65797;47.352;8.164;2023-07-22T10:22:46;26.80;15.70
76838;DHT22;65797;47.352;8.164;2023-07-22T10:25:15;25.50;10.40
76838;DHT22;65797;47.352;8.164;2023-07-22T10:27:41;25.60;10.20
76838;DHT22;65797;47.352;8.164;2023-07-22T10:30:14;25.50;10.40
76838;DHT22;65797;47.352;8.164;2023-07-22T10:32:45;25.90;10.90
76838;DHT22;65797;47.352;8.164;2023-07-22T10:35:14;25.80;13.10
76838;DHT22;65797;47.352;8.164;2023-07-22T10:37:45;26.50;14.40
76838;DHT22;65797;47.352;8.164;2023-07-22T10:40:18;26.20;13.80
76838;DHT22;65797;47.352;8.164;2023-07-22T10:43:11;25.90;11.40
76838;DHT22;65797;47.352;8.164;2023-07-22T10:45:42;25.70;10.10
76838;DHT22;65797;47.352;8.164;2023-07-22T10:48:09;26.10;9.80
76838;DHT22;65797;47.352;8.164;2023-07-22T10:53:09;25.40;5.70
76838;DHT22;65797;47.352;8.164;2023-07-22T11:09:36;27.40;15.90
76838;DHT22;65797;47.352;8.164;2023-07-22T11:12:13;27.60;16.50
76838;DHT22;65797;47.352;8.164;2023-07-22T11:15:04;28.20;21.60
76838;DHT22;65797;47.352;8.164;2023-07-22T11:17:32;28.10;17.30
76838;DHT22;65797;47.352;8.164;2023-07-22T11:20:00;28.20;15.00
76838;DHT22;65797;47.352;8.164;2023-07-22T11:22:26;27.70;12.60
76838;DHT22;65797;47.352;8.164;2023-07-22T11:24:55;28.10;14.10
76838;DHT22;65797;47.352;8.164;2023-07-22T11:27:21;27.70;11.90
76838;DHT22;65797;47.352;8.164;2023-07-22T11:29:50;27.50;9.50
76838;DHT22;65797;47.352;8.164;2023-07-22T11:32:18;27.90;13.40
76838;DHT22;65797;47.352;8.164;2023-07-22T11:34:45;28.40;16.90
76838;DHT22;65797;47.352;8.164;2023-07-22T11:37:11;28.30;17.00
76838;DHT22;65797;47.352;8.164;2023-07-22T11:39:37;28.20;15.90
76838;DHT22;65797;47.352;8.164;2023-07-22T11:42:04;28.70;19.80
76838;DHT22;65797;47.352;8.164;2023-07-22T11:44:30;28.80;18.40
76838;DHT22;65797;47.352;8.164;2023-07-22T11:47:01;28.20;14.80
76838;DHT22;65797;47.352;8.164;2023-07-22T11:49:37;28.40;16.80
76838;DHT22;65797;47.352;8.164;2023-07-22T11:52:08;28.20;15.10
76838;DHT22;65797;47.352;8.164;2023-07-22T11:54:37;27.90;10.70
76838;DHT22;65797;47.352;8.164;2023-07-22T11:59:49;28.50;13.60
76838;DHT22;65797;47.352;8.164;2023-07-22T12:02:16;28.40;13.20
76838;DHT22;65797;47.352;8.164;2023-07-22T12:04:43;28.00;11.40
76838;DHT22;65797;47.352;8.164;2023-07-22T12:07:26;28.00;10.00
76838;DHT22;65797;47.352;8.164;2023-07-22T12:09:53;27.90;9.00
76838;DHT22;65797;47.352;8.164;2023-07-22T12:12:19;27.70;7.80
76838;DHT22;65797;47.352;8.164;2023-07-22T12:14:44;28.20;10.70
76838;DHT22;65797;47.352;8.164;2023-07-22T12:17:10;28.10;8.30
76838;DHT22;65797;47.352;8.164;2023-07-22T12:19:36;28.30;9.60
76838;DHT22;65797;47.352;8.164;2023-07-22T12:22:02;28.00;7.80
76838;DHT22;65797;47.352;8.164;2023-07-22T12:24:28;28.00;8.80
76838;DHT22;65797;47.352;8.164;2023-07-22T12:26:54;28.20;8.50
76838;DHT22;65797;47.352;8.164;2023-07-22T12:29:20;28.40;10.20
76838;DHT22;65797;47.352;8.164;2023-07-22T12:31:47;28.10;7.80
76838;DHT22;65797;47.352;8.164;2023-07-22T12:34:13;28.50;20.40
76838;DHT22;65797;47.352;8.164;2023-07-22T13:05:18;28.50;5.50
76838;DHT22;65797;47.352;8.164;2023-07-22T13:07:44;29.00;9.10
76838;DHT22;65797;47.352;8.164;2023-07-22T13:10:10;29.10;9.70
76838;DHT22;65797;47.352;8.164;2023-07-22T13:12:38;29.20;10.90
76838;DHT22;65797;47.352;8.164;2023-07-22T13:15:05;29.50;12.00
76838;DHT22;65797;47.352;8.164;2023-07-22T13:17:31;29.30;9.50
76838;DHT22;65797;47.352;8.164;2023-07-22T13:19:57;29.90;14.60
76838;DHT22;65797;47.352;8.164;2023-07-22T13:22:23;29.80;14.00
76838;DHT22;65797;47.352;8.164;2023-07-22T13:24:49;29.50;11.20
76838;DHT22;65797;47.352;8.164;2023-07-22T13:27:15;29.60;11.80
76838;DHT22;65797;47.352;8.164;2023-07-22T13:29:41;29.60;9.20
76838;DHT22;65797;47.352;8.164;2023-07-22T13:32:07;29.20;6.30
76838;DHT22;65797;47.352;8.164;2023-07-22T13:34:33;29.40;5.60
76838;DHT22;65797;47.352;8.164;2023-07-22T13:36:58;28.80;2.70
76838;DHT22;65797;47.352;8.164;2023-07-22T13:39:24;28.70;1.40
76838;DHT22;65797;47.352;8.164;2023-07-22T13:41:50;28.90;2.20
76838;DHT22;65797;47.352;8.164;2023-07-22T13:44:16;29.20;2.40
76838;DHT22;65797;47.352;8.164;2023-07-22T13:46:42;29.50;5.70
76838;DHT22;65797;47.352;8.164;2023-07-22T13:49:08;29.50;6.30
76838;DHT22;65797;47.352;8.164;2023-07-22T13:51:34;29.50;5.40
76838;DHT22;65797;47.352;8.164;2023-07-22T13:54:00;28.90;1.00
76838;DHT22;65797;47.352;8.164;2023-07-22T13:56:25;28.80;1.00
76838;DHT22;65797;47.352;8.164;2023-07-22T13:58:53;28.70;1.00
76838;DHT22;65797;47.352;8.164;2023-07-22T14:01:19;28.70;1.00
76838;DHT22;65797;47.352;8.164;2023-07-22T14:03:44;28.60;1.00
76838;DHT22;65797;47.352;8.164;2023-07-22T14:06:10;29.20;2.20
76838;DHT22;65797;47.352;8.164;2023-07-22T14:08:36;29.50;5.00
76838;DHT22;65797;47.352;8.164;2023-07-22T14:11:01;29.90;8.90
76838;DHT22;65797;47.352;8.164;2023-07-22T14:13:27;30.10;19.50
76838;DHT22;65797;47.352;8.164;2023-07-22T14:15:53;29.80;7.80
76838;DHT22;65797;47.352;8.164;2023-07-22T14:18:19;30.00;10.00
76838;DHT22;65797;47.352;8.164;2023-07-22T14:20:46;30.10;11.10
76838;DHT22;65797;47.352;8.164;2023-07-22T14:23:12;29.70;6.90
76838;DHT22;65797;47.352;8.164;2023-07-22T14:25:38;30.00;7.20
76838;DHT22;65797;47.352;8.164;2023-07-22T14:28:04;30.10;11.20
76838;DHT22;65797;47.352;8.164;2023-07-22T14:30:29;29.40;4.60
76838;DHT22;65797;47.352;8.164;2023-07-22T14:38:06;30.10;10.70
76838;DHT22;65797;47.352;8.164;2023-07-22T14:40:32;30.40;10.50
76838;DHT22;65797;47.352;8.164;2023-07-22T14:42:57;30.60;11.20
76838;DHT22;65797;47.352;8.164;2023-07-22T14:45:23;29.90;7.10
76838;DHT22;65797;47.352;8.164;2023-07-22T14:47:49;29.40;4.60
76838;DHT22;65797;47.352;8.164;2023-07-22T14:50:15;29.90;7.90
76838;DHT22;65797;47.352;8.164;2023-07-22T14:52:41;30.10;7.10
76838;DHT22;65797;47.352;8.164;2023-07-22T14:55:08;30.30;9.50
76838;DHT22;65797;47.352;8.164;2023-07-22T14:57:34;30.60;9.70
76838;DHT22;65797;47.352;8.164;2023-07-22T15:13:23;29.80;6.20
76838;DHT22;65797;47.352;8.164;2023-07-22T15:18:24;29.60;3.30
76838;DHT22;65797;47.352;8.164;2023-07-22T15:20:53;29.90;5.40
76838;DHT22;65797;47.352;8.164;2023-07-22T15:23:19;29.90;4.90
76838;DHT22;65797;47.352;8.164;2023-07-22T15:25:45;29.80;4.60
76838;DHT22;65797;47.352;8.164;2023-07-22T15:28:11;29.60;3.30
76838;DHT22;65797;47.352;8.164;2023-07-22T19:30:14;22.70;1.00
76838;DHT22;65797;47.352;8.164;2023-07-22T19:35:16;22.50;1.00
76838;DHT22;65797;47.352;8.164;2023-07-22T19:37:42;22.30;1.00
76838;DHT22;65797;47.352;8.164;2023-07-22T19:40:08;22.20;1.00
76838;DHT22;65797;47.352;8.164;2023-07-22T19:42:34;22.10;1.00
76838;DHT22;65797;47.352;8.164;2023-07-22T19:45:00;22.00;1.00
76838;DHT22;65797;47.352;8.164;2023-07-22T19:47:25;21.80;1.00
76838;DHT22;65797;47.352;8.164;2023-07-22T19:49:51;21.70;1.00
76838;DHT22;65797;47.352;8.164;2023-07-22T19:52:17;21.60;1.00
76838;DHT22;65797;47.352;8.164;2023-07-22T19:54:42;21.40;1.00
76838;DHT22;65797;47.352;8.164;2023-07-22T19:57:08;21.20;1.00
76838;DHT22;65797;47.352;8.164;2023-07-22T19:59:35;21.10;1.00
76838;DHT22;65797;47.352;8.164;2023-07-22T20:02:00;21.10;1.00
76838;DHT22;65797;47.352;8.164;2023-07-22T20:04:26;21.00;1.00
76838;DHT22;65797;47.352;8.164;2023-07-22T20:06:53;20.90;1.00
76838;DHT22;65797;47.352;8.164;2023-07-22T20:09:18;20.90;1.00
76838;DHT22;65797;47.352;8.164;2023-07-22T20:11:44;20.90;1.00
76838;DHT22;65797;47.352;8.164;2023-07-22T20:14:10;20.70;6.60
76838;DHT22;65797;47.352;8.164;2023-07-22T20:16:35;20.70;14.80
76838;DHT22;65797;47.352;8.164;2023-07-22T20:19:01;20.60;14.90
76838;DHT22;65797;47.352;8.164;2023-07-22T20:21:27;20.60;26.90
76838;DHT22;65797;47.352;8.164;2023-07-22T20:23:53;20.50;38.60
76838;DHT22;65797;47.352;8.164;2023-07-22T20:26:19;20.40;45.10
76838;DHT22;65797;47.352;8.164;2023-07-22T20:28:45;20.30;69.80
76838;DHT22;65797;47.352;8.164;2023-07-22T20:31:14;20.20;77.30
76838;DHT22;65797;47.352;8.164;2023-07-22T20:33:40;20.20;72.40
76838;DHT22;65797;47.352;8.164;2023-07-22T20:36:05;20.10;94.30
76838;DHT22;65797;47.352;8.164;2023-07-22T20:38:32;20.00;97.50
76838;DHT22;65797;47.352;8.164;2023-07-22T20:41:02;19.90;99.90
76838;DHT22;65797;47.352;8.164;2023-07-22T20:43:28;19.90;98.50
76838;DHT22;65797;47.352;8.164;2023-07-22T20:45:54;19.80;93.50
76838;DHT22;65797;47.352;8.164;2023-07-22T20:48:20;19.80;86.00
76838;DHT22;65797;47.352;8.164;2023-07-22T20:50:45;19.80;81.00
76838;DHT22;65797;47.352;8.164;2023-07-22T20:53:11;19.70;99.90
76838;DHT22;65797;47.352;8.164;2023-07-22T20:55:37;19.60;99.90
76838;DHT22;65797;47.352;8.164;2023-07-22T20:58:03;19.50;99.90